sensor_id;sensor_type;location;lat;lon;timestamp;P1;durP1;ratioP1;P2;durP2;ratioP2
65831;SDS011;52593;42.648;23.332;2023-11-21T00:01:56;14.38;;;5.22;;
65831;SDS011;52593;42.648;23.332;2023-11-21T00:04:22;15.23;;;5.63;;
65831;SDS011;52593;42.648;23.332;2023-11-21T00:06:48;14.43;;;5.30;;
65831;SDS011;52593;42.648;23.332;2023-11-21T00:09:14;13.67;;;5.20;;
65831;SDS011;52593;42.648;23.332;2023-11-21T00:11:44;17.05;;;5.40;;
65831;SDS011;52593;42.648;23.332;2023-11-21T00:14:13;17.38;;;5.45;;
65831;SDS011;52593;42.648;23.332;2023-11-21T00:16:40;18.98;;;6.05;;
65831;SDS011;52593;42.648;23.332;2023-11-21T00:19:06;18.70;;;7.37;;
65831;SDS011;52593;42.648;23.332;2023-11-21T00:21:31;16.35;;;6.65;;
65831;SDS011;52593;42.648;23.332;2023-11-21T00:23:57;22.67;;;6.37;;
65831;SDS011;52593;42.648;23.332;2023-11-21T00:26:22;23.37;;;6.63;;
65831;SDS011;52593;42.648;23.332;2023-11-21T00:28:49;16.30;;;6.55;;
65831;SDS011;52593;42.648;23.332;2023-11-21T00:31:15;15.15;;;6.65;;
65831;SDS011;52593;42.648;23.332;2023-11-21T00:33:41;19.27;;;6.30;;
65831;SDS011;52593;42.648;23.332;2023-11-21T00:36:06;19.23;;;6.85;;
65831;SDS011;52593;42.648;23.332;2023-11-21T00:38:34;20.50;;;6.80;;
65831;SDS011;52593;42.648;23.332;2023-11-21T00:41:00;17.23;;;6.32;;
65831;SDS011;52593;42.648;23.332;2023-11-21T00:43:26;19.27;;;6.80;;
65831;SDS011;52593;42.648;23.332;2023-11-21T00:45:51;21.08;;;7.15;;
65831;SDS011;52593;42.648;23.332;2023-11-21T00:48:17;19.67;;;7.80;;
65831;SDS011;52593;42.648;23.332;2023-11-21T00:50:45;18.60;;;7.63;;
65831;SDS011;52593;42.648;23.332;2023-11-21T00:53:11;18.63;;;7.30;;
65831;SDS011;52593;42.648;23.332;2023-11-21T00:55:37;21.13;;;7.43;;
65831;SDS011;52593;42.648;23.332;2023-11-21T00:58:05;19.08;;;7.68;;
65831;SDS011;52593;42.648;23.332;2023-11-21T01:00:32;18.33;;;7.15;;
65831;SDS011;52593;42.648;23.332;2023-11-21T01:02:58;18.90;;;7.75;;
65831;SDS011;52593;42.648;23.332;2023-11-21T01:05:24;18.48;;;7.47;;
65831;SDS011;52593;42.648;23.332;2023-11-21T01:07:49;24.57;;;7.43;;
65831;SDS011;52593;42.648;23.332;2023-11-21T01:10:15;20.03;;;7.77;;
65831;SDS011;52593;42.648;23.332;2023-11-21T01:12:42;17.73;;;6.80;;
65831;SDS011;52593;42.648;23.332;2023-11-21T01:15:08;19.60;;;7.20;;
65831;SDS011;52593;42.648;23.332;2023-11-21T01:17:33;20.63;;;8.10;;
65831;SDS011;52593;42.648;23.332;2023-11-21T01:19:59;26.77;;;8.00;;
65831;SDS011;52593;42.648;23.332;2023-11-21T01:22:25;19.67;;;7.75;;
65831;SDS011;52593;42.648;23.332;2023-11-21T01:24:54;27.10;;;10.27;;
65831;SDS011;52593;42.648;23.332;2023-11-21T01:27:19;21.75;;;8.00;;
65831;SDS011;52593;42.648;23.332;2023-11-21T01:29:45;20.13;;;7.77;;
65831;SDS011;52593;42.648;23.332;2023-11-21T01:32:10;20.00;;;8.10;;
65831;SDS011;52593;42.648;23.332;2023-11-21T01:34:36;17.60;;;7.67;;
65831;SDS011;52593;42.648;23.332;2023-11-21T01:37:02;19.70;;;7.47;;
65831;SDS011;52593;42.648;23.332;2023-11-21T01:39:29;16.70;;;7.60;;
65831;SDS011;52593;42.648;23.332;2023-11-21T01:41:55;19.08;;;7.53;;
65831;SDS011;52593;42.648;23.332;2023-11-21T01:44:23;19.75;;;7.72;;
65831;SDS011;52593;42.648;23.332;2023-11-21T01:46:49;20.23;;;8.33;;
65831;SDS011;52593;42.648;23.332;2023-11-21T01:49:16;21.17;;;7.45;;
65831;SDS011;52593;42.648;23.332;2023-11-21T01:51:43;17.75;;;7.65;;
65831;SDS011;52593;42.648;23.332;2023-11-21T01:54:11;19.25;;;7.68;;
65831;SDS011;52593;42.648;23.332;2023-11-21T01:56:37;19.50;;;8.00;;
65831;SDS011;52593;42.648;23.332;2023-11-21T01:59:04;20.73;;;7.75;;
65831;SDS011;52593;42.648;23.332;2023-11-21T02:01:32;21.38;;;7.57;;
65831;SDS011;52593;42.648;23.332;2023-11-21T02:03:58;18.80;;;7.40;;
65831;SDS011;52593;42.648;23.332;2023-11-21T02:06:23;20.57;;;7.67;;
65831;SDS011;52593;42.648;23.332;2023-11-21T02:08:49;18.27;;;7.70;;
65831;SDS011;52593;42.648;23.332;2023-11-21T02:11:15;19.58;;;7.47;;
65831;SDS011;52593;42.648;23.332;2023-11-21T02:13:41;20.85;;;7.43;;
65831;SDS011;52593;42.648;23.332;2023-11-21T02:16:10;20.43;;;6.97;;
65831;SDS011;52593;42.648;23.332;2023-11-21T02:18:39;22.52;;;8.18;;
65831;SDS011;52593;42.648;23.332;2023-11-21T02:21:04;18.70;;;7.95;;
65831;SDS011;52593;42.648;23.332;2023-11-21T02:23:30;18.42;;;7.25;;
65831;SDS011;52593;42.648;23.332;2023-11-21T02:25:55;18.17;;;7.83;;
65831;SDS011;52593;42.648;23.332;2023-11-21T02:28:21;19.73;;;8.00;;
65831;SDS011;52593;42.648;23.332;2023-11-21T02:30:51;17.92;;;7.70;;
65831;SDS011;52593;42.648;23.332;2023-11-21T02:33:20;19.70;;;7.50;;
65831;SDS011;52593;42.648;23.332;2023-11-21T02:35:46;19.33;;;7.83;;
65831;SDS011;52593;42.648;23.332;2023-11-21T02:38:11;20.63;;;7.78;;
65831;SDS011;52593;42.648;23.332;2023-11-21T02:40:37;18.80;;;7.73;;
65831;SDS011;52593;42.648;23.332;2023-11-21T02:43:02;21.13;;;8.20;;
65831;SDS011;52593;42.648;23.332;2023-11-21T02:45:30;18.92;;;7.57;;
65831;SDS011;52593;42.648;23.332;2023-11-21T02:47:56;17.48;;;7.20;;
65831;SDS011;52593;42.648;23.332;2023-11-21T02:50:22;16.83;;;7.70;;
65831;SDS011;52593;42.648;23.332;2023-11-21T02:52:48;19.73;;;7.40;;
65831;SDS011;52593;42.648;23.332;2023-11-21T02:55:14;16.10;;;6.93;;
65831;SDS011;52593;42.648;23.332;2023-11-21T02:57:39;16.17;;;6.80;;
65831;SDS011;52593;42.648;23.332;2023-11-21T03:00:05;21.93;;;7.93;;
65831;SDS011;52593;42.648;23.332;2023-11-21T03:02:32;18.52;;;6.63;;
65831;SDS011;52593;42.648;23.332;2023-11-21T03:04:58;21.70;;;7.38;;
65831;SDS011;52593;42.648;23.332;2023-11-21T03:07:24;20.47;;;8.10;;
65831;SDS011;52593;42.648;23.332;2023-11-21T03:09:50;15.70;;;7.28;;
65831;SDS011;52593;42.648;23.332;2023-11-21T03:12:15;23.73;;;7.27;;
65831;SDS011;52593;42.648;23.332;2023-11-21T03:14:41;18.43;;;7.10;;
65831;SDS011;52593;42.648;23.332;2023-11-21T03:17:06;17.00;;;7.17;;
65831;SDS011;52593;42.648;23.332;2023-11-21T03:19:31;17.23;;;7.28;;
65831;SDS011;52593;42.648;23.332;2023-11-21T03:21:57;16.63;;;6.57;;
65831;SDS011;52593;42.648;23.332;2023-11-21T03:24:22;20.27;;;7.40;;
65831;SDS011;52593;42.648;23.332;2023-11-21T03:26:48;19.57;;;7.47;;
65831;SDS011;52593;42.648;23.332;2023-11-21T03:29:15;18.67;;;7.13;;
65831;SDS011;52593;42.648;23.332;2023-11-21T03:31:40;16.77;;;6.50;;
65831;SDS011;52593;42.648;23.332;2023-11-21T03:34:06;16.95;;;6.80;;
65831;SDS011;52593;42.648;23.332;2023-11-21T03:36:31;17.90;;;6.83;;
65831;SDS011;52593;42.648;23.332;2023-11-21T03:38:57;17.63;;;6.63;;
65831;SDS011;52593;42.648;23.332;2023-11-21T03:41:22;19.30;;;6.95;;
65831;SDS011;52593;42.648;23.332;2023-11-21T03:43:48;19.67;;;7.40;;
65831;SDS011;52593;42.648;23.332;2023-11-21T03:46:13;19.97;;;6.97;;
65831;SDS011;52593;42.648;23.332;2023-11-21T03:48:39;15.88;;;6.57;;
65831;SDS011;52593;42.648;23.332;2023-11-21T03:51:04;22.27;;;7.37;;
65831;SDS011;52593;42.648;23.332;2023-11-21T03:53:30;17.27;;;6.57;;
65831;SDS011;52593;42.648;23.332;2023-11-21T03:55:56;21.10;;;6.57;;
65831;SDS011;52593;42.648;23.332;2023-11-21T03:58:21;18.10;;;6.93;;
65831;SDS011;52593;42.648;23.332;2023-11-21T04:00:47;15.60;;;7.43;;
65831;SDS011;52593;42.648;23.332;2023-11-21T04:03:15;18.17;;;6.88;;
65831;SDS011;52593;42.648;23.332;2023-11-21T04:05:41;18.13;;;7.07;;
65831;SDS011;52593;42.648;23.332;2023-11-21T04:08:06;16.73;;;6.40;;
65831;SDS011;52593;42.648;23.332;2023-11-21T04:10:32;15.77;;;6.27;;
65831;SDS011;52593;42.648;23.332;2023-11-21T04:12:57;17.63;;;7.17;;
65831;SDS011;52593;42.648;23.332;2023-11-21T04:15:23;19.00;;;7.40;;
65831;SDS011;52593;42.648;23.332;2023-11-21T04:17:49;14.60;;;6.87;;
65831;SDS011;52593;42.648;23.332;2023-11-21T04:20:14;19.20;;;7.03;;
65831;SDS011;52593;42.648;23.332;2023-11-21T04:22:40;20.48;;;6.88;;
65831;SDS011;52593;42.648;23.332;2023-11-21T04:25:07;16.98;;;7.30;;
65831;SDS011;52593;42.648;23.332;2023-11-21T04:27:34;17.88;;;6.03;;
65831;SDS011;52593;42.648;23.332;2023-11-21T04:30:00;16.30;;;5.77;;
65831;SDS011;52593;42.648;23.332;2023-11-21T04:32:25;20.58;;;6.72;;
65831;SDS011;52593;42.648;23.332;2023-11-21T04:34:51;14.53;;;5.40;;
65831;SDS011;52593;42.648;23.332;2023-11-21T04:37:16;15.83;;;6.03;;
65831;SDS011;52593;42.648;23.332;2023-11-21T04:39:41;15.60;;;5.63;;
65831;SDS011;52593;42.648;23.332;2023-11-21T04:42:07;12.67;;;4.70;;
65831;SDS011;52593;42.648;23.332;2023-11-21T04:44:32;18.50;;;5.05;;
65831;SDS011;52593;42.648;23.332;2023-11-21T04:46:58;13.13;;;4.57;;
65831;SDS011;52593;42.648;23.332;2023-11-21T04:49:23;13.03;;;5.27;;
65831;SDS011;52593;42.648;23.332;2023-11-21T04:51:48;12.23;;;4.30;;
65831;SDS011;52593;42.648;23.332;2023-11-21T04:54:14;11.27;;;4.43;;
65831;SDS011;52593;42.648;23.332;2023-11-21T04:56:39;11.55;;;4.15;;
65831;SDS011;52593;42.648;23.332;2023-11-21T04:59:05;14.50;;;5.13;;
65831;SDS011;52593;42.648;23.332;2023-11-21T05:01:30;13.33;;;4.80;;
65831;SDS011;52593;42.648;23.332;2023-11-21T05:03:55;12.07;;;4.63;;
65831;SDS011;52593;42.648;23.332;2023-11-21T05:06:22;13.15;;;5.10;;
65831;SDS011;52593;42.648;23.332;2023-11-21T05:08:49;14.10;;;5.75;;
65831;SDS011;52593;42.648;23.332;2023-11-21T05:11:23;15.60;;;5.97;;
65831;SDS011;52593;42.648;23.332;2023-11-21T05:13:49;13.43;;;5.82;;
65831;SDS011;52593;42.648;23.332;2023-11-21T05:16:17;16.83;;;6.00;;
65831;SDS011;52593;42.648;23.332;2023-11-21T05:18:42;16.03;;;6.23;;
65831;SDS011;52593;42.648;23.332;2023-11-21T05:21:08;20.33;;;6.60;;
65831;SDS011;52593;42.648;23.332;2023-11-21T05:23:34;19.30;;;6.88;;
65831;SDS011;52593;42.648;23.332;2023-11-21T05:26:00;18.47;;;7.03;;
65831;SDS011;52593;42.648;23.332;2023-11-21T05:28:25;19.63;;;6.63;;
65831;SDS011;52593;42.648;23.332;2023-11-21T05:30:50;16.80;;;6.30;;
65831;SDS011;52593;42.648;23.332;2023-11-21T05:33:16;20.70;;;8.13;;
65831;SDS011;52593;42.648;23.332;2023-11-21T05:35:42;23.52;;;7.60;;
65831;SDS011;52593;42.648;23.332;2023-11-21T05:38:07;24.43;;;9.20;;
65831;SDS011;52593;42.648;23.332;2023-11-21T05:40:32;21.27;;;7.13;;
65831;SDS011;52593;42.648;23.332;2023-11-21T05:42:58;24.10;;;7.83;;
65831;SDS011;52593;42.648;23.332;2023-11-21T05:45:24;23.05;;;8.93;;
65831;SDS011;52593;42.648;23.332;2023-11-21T05:47:49;21.17;;;9.03;;
65831;SDS011;52593;42.648;23.332;2023-11-21T05:50:15;23.15;;;8.75;;
65831;SDS011;52593;42.648;23.332;2023-11-21T05:52:43;22.13;;;8.57;;
65831;SDS011;52593;42.648;23.332;2023-11-21T05:55:09;25.63;;;9.48;;
65831;SDS011;52593;42.648;23.332;2023-11-21T05:57:38;27.37;;;9.77;;
65831;SDS011;52593;42.648;23.332;2023-11-21T06:00:05;27.80;;;11.63;;
65831;SDS011;52593;42.648;23.332;2023-11-21T06:02:50;27.98;;;10.38;;
65831;SDS011;52593;42.648;23.332;2023-11-21T06:05:18;31.35;;;11.13;;
65831;SDS011;52593;42.648;23.332;2023-11-21T06:07:45;29.80;;;11.20;;
65831;SDS011;52593;42.648;23.332;2023-11-21T06:10:11;27.50;;;10.95;;
65831;SDS011;52593;42.648;23.332;2023-11-21T06:12:39;26.90;;;10.77;;
65831;SDS011;52593;42.648;23.332;2023-11-21T06:15:07;33.08;;;11.77;;
65831;SDS011;52593;42.648;23.332;2023-11-21T06:17:37;34.07;;;11.50;;
65831;SDS011;52593;42.648;23.332;2023-11-21T06:20:03;26.80;;;10.95;;
65831;SDS011;52593;42.648;23.332;2023-11-21T06:22:34;26.55;;;11.25;;
65831;SDS011;52593;42.648;23.332;2023-11-21T06:25:09;30.05;;;10.70;;
65831;SDS011;52593;42.648;23.332;2023-11-21T06:27:38;23.23;;;10.00;;
65831;SDS011;52593;42.648;23.332;2023-11-21T06:30:05;32.20;;;11.80;;
65831;SDS011;52593;42.648;23.332;2023-11-21T06:32:32;21.45;;;9.57;;
65831;SDS011;52593;42.648;23.332;2023-11-21T06:34:57;27.38;;;11.43;;
65831;SDS011;52593;42.648;23.332;2023-11-21T06:37:26;28.90;;;10.43;;
65831;SDS011;52593;42.648;23.332;2023-11-21T06:39:54;27.67;;;10.40;;
65831;SDS011;52593;42.648;23.332;2023-11-21T06:42:19;28.80;;;10.38;;
65831;SDS011;52593;42.648;23.332;2023-11-21T06:44:45;29.20;;;10.55;;
65831;SDS011;52593;42.648;23.332;2023-11-21T06:47:11;25.58;;;9.88;;
65831;SDS011;52593;42.648;23.332;2023-11-21T06:49:37;27.30;;;10.17;;
65831;SDS011;52593;42.648;23.332;2023-11-21T06:52:03;26.25;;;11.05;;
65831;SDS011;52593;42.648;23.332;2023-11-21T06:54:33;28.03;;;9.17;;
65831;SDS011;52593;42.648;23.332;2023-11-21T06:56:59;27.55;;;11.45;;
65831;SDS011;52593;42.648;23.332;2023-11-21T06:59:25;30.52;;;10.90;;
65831;SDS011;52593;42.648;23.332;2023-11-21T07:01:50;25.57;;;9.80;;
65831;SDS011;52593;42.648;23.332;2023-11-21T07:04:16;20.63;;;9.33;;
65831;SDS011;52593;42.648;23.332;2023-11-21T07:06:43;26.63;;;9.77;;
65831;SDS011;52593;42.648;23.332;2023-11-21T07:09:09;25.02;;;9.68;;
65831;SDS011;52593;42.648;23.332;2023-11-21T07:11:36;18.47;;;7.73;;
65831;SDS011;52593;42.648;23.332;2023-11-21T07:14:03;18.88;;;7.68;;
65831;SDS011;52593;42.648;23.332;2023-11-21T07:16:33;18.98;;;7.43;;
65831;SDS011;52593;42.648;23.332;2023-11-21T07:19:06;22.02;;;8.43;;
65831;SDS011;52593;42.648;23.332;2023-11-21T07:21:35;24.35;;;9.40;;
65831;SDS011;52593;42.648;23.332;2023-11-21T07:24:02;22.83;;;9.57;;
65831;SDS011;52593;42.648;23.332;2023-11-21T07:26:28;21.58;;;8.43;;
65831;SDS011;52593;42.648;23.332;2023-11-21T07:28:54;25.45;;;9.38;;
65831;SDS011;52593;42.648;23.332;2023-11-21T07:31:19;24.83;;;10.57;;
65831;SDS011;52593;42.648;23.332;2023-11-21T07:33:46;22.83;;;9.32;;
65831;SDS011;52593;42.648;23.332;2023-11-21T07:36:15;22.75;;;9.20;;
65831;SDS011;52593;42.648;23.332;2023-11-21T07:38:43;24.03;;;10.63;;
65831;SDS011;52593;42.648;23.332;2023-11-21T07:41:09;28.50;;;10.30;;
65831;SDS011;52593;42.648;23.332;2023-11-21T07:43:35;19.00;;;8.68;;
65831;SDS011;52593;42.648;23.332;2023-11-21T07:46:02;23.27;;;10.18;;
65831;SDS011;52593;42.648;23.332;2023-11-21T07:48:31;29.13;;;10.43;;
65831;SDS011;52593;42.648;23.332;2023-11-21T07:50:58;24.87;;;10.17;;
65831;SDS011;52593;42.648;23.332;2023-11-21T07:53:24;25.65;;;10.27;;
65831;SDS011;52593;42.648;23.332;2023-11-21T07:55:51;22.55;;;10.60;;
65831;SDS011;52593;42.648;23.332;2023-11-21T07:58:17;21.55;;;9.65;;
65831;SDS011;52593;42.648;23.332;2023-11-21T08:00:43;25.63;;;10.35;;
65831;SDS011;52593;42.648;23.332;2023-11-21T08:03:09;21.53;;;10.10;;
65831;SDS011;52593;42.648;23.332;2023-11-21T08:05:34;22.33;;;9.80;;
65831;SDS011;52593;42.648;23.332;2023-11-21T08:08:00;26.37;;;9.77;;
65831;SDS011;52593;42.648;23.332;2023-11-21T08:10:26;30.00;;;10.33;;
65831;SDS011;52593;42.648;23.332;2023-11-21T08:12:51;25.20;;;10.73;;
65831;SDS011;52593;42.648;23.332;2023-11-21T08:15:17;23.93;;;9.87;;
65831;SDS011;52593;42.648;23.332;2023-11-21T08:17:42;20.70;;;9.63;;
65831;SDS011;52593;42.648;23.332;2023-11-21T08:20:08;27.93;;;11.17;;
65831;SDS011;52593;42.648;23.332;2023-11-21T08:22:36;25.88;;;10.40;;
65831;SDS011;52593;42.648;23.332;2023-11-21T08:25:01;33.72;;;11.93;;
65831;SDS011;52593;42.648;23.332;2023-11-21T08:27:29;22.67;;;10.67;;
65831;SDS011;52593;42.648;23.332;2023-11-21T08:29:55;20.83;;;9.77;;
65831;SDS011;52593;42.648;23.332;2023-11-21T08:32:21;28.83;;;10.27;;
65831;SDS011;52593;42.648;23.332;2023-11-21T08:34:47;21.33;;;10.30;;
65831;SDS011;52593;42.648;23.332;2023-11-21T08:37:15;26.10;;;11.60;;
65831;SDS011;52593;42.648;23.332;2023-11-21T08:39:41;24.17;;;11.45;;
65831;SDS011;52593;42.648;23.332;2023-11-21T08:42:08;25.73;;;10.47;;
65831;SDS011;52593;42.648;23.332;2023-11-21T08:44:34;33.67;;;11.07;;
65831;SDS011;52593;42.648;23.332;2023-11-21T08:46:59;25.90;;;11.97;;
65831;SDS011;52593;42.648;23.332;2023-11-21T08:49:25;28.90;;;10.10;;
65831;SDS011;52593;42.648;23.332;2023-11-21T08:51:52;25.77;;;10.30;;
65831;SDS011;52593;42.648;23.332;2023-11-21T08:54:20;24.48;;;10.63;;
65831;SDS011;52593;42.648;23.332;2023-11-21T08:56:46;25.10;;;11.63;;
65831;SDS011;52593;42.648;23.332;2023-11-21T08:59:11;28.45;;;10.15;;
65831;SDS011;52593;42.648;23.332;2023-11-21T09:01:39;23.55;;;10.30;;
65831;SDS011;52593;42.648;23.332;2023-11-21T09:04:06;25.87;;;11.17;;
65831;SDS011;52593;42.648;23.332;2023-11-21T09:06:31;27.23;;;11.73;;
65831;SDS011;52593;42.648;23.332;2023-11-21T09:08:57;26.10;;;11.63;;
65831;SDS011;52593;42.648;23.332;2023-11-21T09:11:23;28.10;;;12.13;;
65831;SDS011;52593;42.648;23.332;2023-11-21T09:13:51;28.38;;;11.30;;
65831;SDS011;52593;42.648;23.332;2023-11-21T09:16:16;23.87;;;9.93;;
65831;SDS011;52593;42.648;23.332;2023-11-21T09:18:42;22.60;;;10.85;;
65831;SDS011;52593;42.648;23.332;2023-11-21T09:21:07;23.37;;;10.27;;
65831;SDS011;52593;42.648;23.332;2023-11-21T09:23:34;26.00;;;11.10;;
65831;SDS011;52593;42.648;23.332;2023-11-21T09:26:00;26.05;;;10.90;;
65831;SDS011;52593;42.648;23.332;2023-11-21T09:28:26;25.33;;;10.77;;
65831;SDS011;52593;42.648;23.332;2023-11-21T09:30:52;22.63;;;10.90;;
65831;SDS011;52593;42.648;23.332;2023-11-21T09:33:18;25.73;;;10.90;;
65831;SDS011;52593;42.648;23.332;2023-11-21T09:35:44;24.77;;;11.17;;
65831;SDS011;52593;42.648;23.332;2023-11-21T09:38:10;25.83;;;10.55;;
65831;SDS011;52593;42.648;23.332;2023-11-21T09:40:36;20.27;;;9.50;;
65831;SDS011;52593;42.648;23.332;2023-11-21T09:43:15;22.83;;;7.97;;
65831;SDS011;52593;42.648;23.332;2023-11-21T09:45:45;23.15;;;7.60;;
65831;SDS011;52593;42.648;23.332;2023-11-21T09:48:19;16.42;;;7.78;;
65831;SDS011;52593;42.648;23.332;2023-11-21T09:50:46;18.63;;;7.47;;
65831;SDS011;52593;42.648;23.332;2023-11-21T09:55:43;19.53;;;7.93;;
65831;SDS011;52593;42.648;23.332;2023-11-21T09:58:09;19.23;;;7.78;;
65831;SDS011;52593;42.648;23.332;2023-11-21T10:00:39;22.13;;;7.80;;
65831;SDS011;52593;42.648;23.332;2023-11-21T10:03:09;19.83;;;8.48;;
65831;SDS011;52593;42.648;23.332;2023-11-21T10:05:36;19.48;;;9.07;;
65831;SDS011;52593;42.648;23.332;2023-11-21T10:08:02;18.00;;;8.43;;
65831;SDS011;52593;42.648;23.332;2023-11-21T10:10:31;19.45;;;7.90;;
65831;SDS011;52593;42.648;23.332;2023-11-21T10:12:57;19.50;;;8.70;;
65831;SDS011;52593;42.648;23.332;2023-11-21T10:15:28;20.00;;;9.03;;
65831;SDS011;52593;42.648;23.332;2023-11-21T10:17:56;24.27;;;8.60;;
65831;SDS011;52593;42.648;23.332;2023-11-21T10:20:22;18.10;;;9.00;;
65831;SDS011;52593;42.648;23.332;2023-11-21T10:22:49;20.38;;;8.45;;
65831;SDS011;52593;42.648;23.332;2023-11-21T10:25:15;18.50;;;8.10;;
65831;SDS011;52593;42.648;23.332;2023-11-21T10:27:43;20.58;;;9.07;;
65831;SDS011;52593;42.648;23.332;2023-11-21T10:30:11;22.15;;;9.55;;
65831;SDS011;52593;42.648;23.332;2023-11-21T10:32:40;20.70;;;8.97;;
65831;SDS011;52593;42.648;23.332;2023-11-21T10:35:06;27.27;;;10.18;;
65831;SDS011;52593;42.648;23.332;2023-11-21T10:37:35;26.50;;;10.95;;
65831;SDS011;52593;42.648;23.332;2023-11-21T10:40:04;24.95;;;9.98;;
65831;SDS011;52593;42.648;23.332;2023-11-21T10:42:32;23.57;;;10.60;;
65831;SDS011;52593;42.648;23.332;2023-11-21T10:44:57;20.55;;;9.02;;
65831;SDS011;52593;42.648;23.332;2023-11-21T10:47:23;21.55;;;8.77;;
65831;SDS011;52593;42.648;23.332;2023-11-21T10:49:49;16.43;;;7.93;;
65831;SDS011;52593;42.648;23.332;2023-11-21T10:52:14;20.33;;;7.93;;
65831;SDS011;52593;42.648;23.332;2023-11-21T10:54:43;18.05;;;6.97;;
65831;SDS011;52593;42.648;23.332;2023-11-21T10:57:09;18.20;;;7.70;;
65831;SDS011;52593;42.648;23.332;2023-11-21T10:59:36;19.10;;;8.27;;
65831;SDS011;52593;42.648;23.332;2023-11-21T11:02:09;18.27;;;8.35;;
65831;SDS011;52593;42.648;23.332;2023-11-21T11:04:47;20.13;;;8.57;;
65831;SDS011;52593;42.648;23.332;2023-11-21T11:07:13;18.75;;;9.30;;
65831;SDS011;52593;42.648;23.332;2023-11-21T11:09:41;19.85;;;9.25;;
65831;SDS011;52593;42.648;23.332;2023-11-21T11:12:06;23.30;;;9.17;;
65831;SDS011;52593;42.648;23.332;2023-11-21T11:14:34;21.88;;;8.43;;
65831;SDS011;52593;42.648;23.332;2023-11-21T11:17:01;21.73;;;9.98;;
65831;SDS011;52593;42.648;23.332;2023-11-21T11:19:28;19.85;;;8.77;;
65831;SDS011;52593;42.648;23.332;2023-11-21T11:24:28;18.00;;;8.47;;
65831;SDS011;52593;42.648;23.332;2023-11-21T11:29:47;26.02;;;9.07;;
65831;SDS011;52593;42.648;23.332;2023-11-21T11:32:30;19.70;;;8.45;;
65831;SDS011;52593;42.648;23.332;2023-11-21T11:35:18;18.40;;;8.35;;
65831;SDS011;52593;42.648;23.332;2023-11-21T11:37:55;19.63;;;7.93;;
65831;SDS011;52593;42.648;23.332;2023-11-21T11:40:21;18.45;;;8.20;;
65831;SDS011;52593;42.648;23.332;2023-11-21T11:42:56;17.80;;;8.47;;
65831;SDS011;52593;42.648;23.332;2023-11-21T11:45:25;17.67;;;8.13;;
65831;SDS011;52593;42.648;23.332;2023-11-21T11:47:58;23.00;;;9.05;;
65831;SDS011;52593;42.648;23.332;2023-11-21T11:50:25;18.75;;;8.93;;
65831;SDS011;52593;42.648;23.332;2023-11-21T11:52:55;23.92;;;10.63;;
65831;SDS011;52593;42.648;23.332;2023-11-21T11:55:37;25.10;;;11.13;;
65831;SDS011;52593;42.648;23.332;2023-11-21T11:58:04;26.65;;;11.13;;
65831;SDS011;52593;42.648;23.332;2023-11-21T12:00:34;26.08;;;11.90;;
65831;SDS011;52593;42.648;23.332;2023-11-21T12:03:03;27.47;;;11.50;;
65831;SDS011;52593;42.648;23.332;2023-11-21T12:05:30;28.23;;;12.73;;
65831;SDS011;52593;42.648;23.332;2023-11-21T12:08:02;28.85;;;13.27;;
65831;SDS011;52593;42.648;23.332;2023-11-21T12:10:31;25.98;;;12.07;;
65831;SDS011;52593;42.648;23.332;2023-11-21T12:13:08;24.88;;;11.32;;
65831;SDS011;52593;42.648;23.332;2023-11-21T12:15:37;24.77;;;11.10;;
65831;SDS011;52593;42.648;23.332;2023-11-21T12:18:03;22.08;;;9.70;;
65831;SDS011;52593;42.648;23.332;2023-11-21T12:20:30;24.30;;;11.15;;
65831;SDS011;52593;42.648;23.332;2023-11-21T12:22:59;25.27;;;10.77;;
65831;SDS011;52593;42.648;23.332;2023-11-21T12:25:26;23.50;;;11.13;;
65831;SDS011;52593;42.648;23.332;2023-11-21T12:27:54;22.90;;;11.40;;
65831;SDS011;52593;42.648;23.332;2023-11-21T12:30:21;27.80;;;12.48;;
65831;SDS011;52593;42.648;23.332;2023-11-21T12:32:48;31.00;;;12.18;;
65831;SDS011;52593;42.648;23.332;2023-11-21T12:35:16;23.35;;;11.20;;
65831;SDS011;52593;42.648;23.332;2023-11-21T12:37:44;33.42;;;15.05;;
65831;SDS011;52593;42.648;23.332;2023-11-21T12:40:11;31.63;;;14.30;;
65831;SDS011;52593;42.648;23.332;2023-11-21T12:42:39;30.50;;;13.55;;
65831;SDS011;52593;42.648;23.332;2023-11-21T12:45:07;28.92;;;12.73;;
65831;SDS011;52593;42.648;23.332;2023-11-21T12:47:36;27.90;;;13.80;;
65831;SDS011;52593;42.648;23.332;2023-11-21T12:50:02;33.40;;;14.23;;
65831;SDS011;52593;42.648;23.332;2023-11-21T12:52:28;27.67;;;13.60;;
65831;SDS011;52593;42.648;23.332;2023-11-21T12:54:53;29.98;;;13.35;;
65831;SDS011;52593;42.648;23.332;2023-11-21T12:57:21;47.20;;;19.20;;
65831;SDS011;52593;42.648;23.332;2023-11-21T12:59:56;37.40;;;17.40;;
65831;SDS011;52593;42.648;23.332;2023-11-21T13:02:22;37.58;;;15.68;;
65831;SDS011;52593;42.648;23.332;2023-11-21T13:04:51;33.42;;;15.35;;
65831;SDS011;52593;42.648;23.332;2023-11-21T13:07:18;36.63;;;15.85;;
65831;SDS011;52593;42.648;23.332;2023-11-21T13:09:45;35.83;;;17.23;;
65831;SDS011;52593;42.648;23.332;2023-11-21T13:12:11;38.03;;;15.47;;
65831;SDS011;52593;42.648;23.332;2023-11-21T13:14:39;29.35;;;14.38;;
65831;SDS011;52593;42.648;23.332;2023-11-21T13:17:05;34.20;;;14.75;;
65831;SDS011;52593;42.648;23.332;2023-11-21T13:19:30;31.00;;;14.50;;
65831;SDS011;52593;42.648;23.332;2023-11-21T13:21:56;36.47;;;15.80;;
65831;SDS011;52593;42.648;23.332;2023-11-21T13:24:21;32.57;;;14.37;;
65831;SDS011;52593;42.648;23.332;2023-11-21T13:26:46;34.73;;;13.67;;
65831;SDS011;52593;42.648;23.332;2023-11-21T13:29:13;33.55;;;14.55;;
65831;SDS011;52593;42.648;23.332;2023-11-21T13:31:38;30.90;;;14.57;;
65831;SDS011;52593;42.648;23.332;2023-11-21T13:34:04;33.07;;;14.80;;
65831;SDS011;52593;42.648;23.332;2023-11-21T13:36:30;33.28;;;15.15;;
65831;SDS011;52593;42.648;23.332;2023-11-21T13:38:58;35.20;;;14.82;;
65831;SDS011;52593;42.648;23.332;2023-11-21T13:41:24;36.65;;;16.77;;
65831;SDS011;52593;42.648;23.332;2023-11-21T13:43:55;41.87;;;18.63;;
65831;SDS011;52593;42.648;23.332;2023-11-21T13:46:41;41.47;;;18.88;;
65831;SDS011;52593;42.648;23.332;2023-11-21T13:49:07;41.53;;;17.83;;
65831;SDS011;52593;42.648;23.332;2023-11-21T13:51:35;32.55;;;16.10;;
65831;SDS011;52593;42.648;23.332;2023-11-21T13:54:09;36.72;;;15.45;;
65831;SDS011;52593;42.648;23.332;2023-11-21T13:56:36;36.87;;;15.50;;
65831;SDS011;52593;42.648;23.332;2023-11-21T13:59:02;31.42;;;14.73;;
65831;SDS011;52593;42.648;23.332;2023-11-21T14:01:50;39.30;;;16.73;;
65831;SDS011;52593;42.648;23.332;2023-11-21T14:04:25;37.40;;;16.00;;
65831;SDS011;52593;42.648;23.332;2023-11-21T14:07:15;37.03;;;16.05;;
65831;SDS011;52593;42.648;23.332;2023-11-21T14:10:00;32.87;;;15.33;;
65831;SDS011;52593;42.648;23.332;2023-11-21T14:12:30;39.35;;;17.40;;
65831;SDS011;52593;42.648;23.332;2023-11-21T14:14:59;36.78;;;17.50;;
65831;SDS011;52593;42.648;23.332;2023-11-21T14:17:25;41.50;;;17.42;;
65831;SDS011;52593;42.648;23.332;2023-11-21T14:19:50;39.40;;;17.97;;
65831;SDS011;52593;42.648;23.332;2023-11-21T14:22:16;41.07;;;18.10;;
65831;SDS011;52593;42.648;23.332;2023-11-21T14:24:42;39.00;;;17.48;;